Time;durP1;ratioP1;P1;durP2;ratioP2;P2;SDS_P1;SDS_P2;PMS_P1;PMS_P2;Temp;Humidity;BMP_temperature;BMP_pressure;BME280_temperature;BME280_humidity;BME280_pressure;Samples;Min_cycle;Max_cycle;Signal;HPM_P1;HPM_P2
2022/03/05 00:00:44;;;;;;;24.65;10.05;;;;;;;-1.22;69.99;102236.44;1688392;83;21116;-90
2022/03/05 00:03:15;;;;;;;27.60;10.10;;;;;;;-1.24;70.04;102231.86;1683921;84;21070;-90
2022/03/05 00:05:45;;;;;;;29.40;11.15;;;;;;;-1.26;70.09;102229.52;1680573;83;21172;-90
2022/03/05 00:08:11;;;;;;;37.60;13.35;;;;;;;-1.28;70.17;102233.23;1688431;83;22455;-90
2022/03/05 00:10:41;;;;;;;33.75;12.82;;;;;;;-1.27;70.25;102234.17;1661132;85;21077;-91
2022/03/05 00:13:08;;;;;;;30.70;11.00;;;;;;;-1.26;70.28;102225.64;1700788;83;21078;-89
2022/03/05 00:15:39;;;;;;;28.15;10.78;;;;;;;-1.23;70.36;102232.41;1724754;83;21545;-90
2022/03/05 00:18:07;;;;;;;32.98;10.72;;;;;;;-1.19;70.41;102228.05;1699778;83;21395;-89
2022/03/05 00:20:34;;;;;;;29.82;11.20;;;;;;;-1.15;70.43;102234.03;1684066;84;21863;-88
2022/03/05 00:23:01;;;;;;;33.00;10.65;;;;;;;-1.10;70.50;102234.11;1687753;83;21124;-89
2022/03/05 00:25:29;;;;;;;29.32;10.20;;;;;;;-1.04;70.57;102227.31;1669106;83;21193;-89
2022/03/05 00:27:56;;;;;;;21.35;8.53;;;;;;;-0.93;70.61;102224.47;1689769;84;21055;-89
2022/03/05 00:30:24;;;;;;;24.12;8.68;;;;;;;-0.82;70.60;102228.59;1675304;83;21077;-89
2022/03/05 00:32:51;;;;;;;18.20;7.72;;;;;;;-0.70;70.54;102230.50;1666233;85;21769;-89
2022/03/05 00:35:18;;;;;;;18.48;7.58;;;;;;;-0.64;70.37;102225.54;1631423;85;21139;-89
2022/03/05 00:37:47;;;;;;;15.40;6.78;;;;;;;-0.55;70.33;102227.16;1669024;85;21538;-90
2022/03/05 00:40:13;;;;;;;26.80;9.50;;;;;;;-0.48;70.21;102224.38;1671496;84;22246;-90
2022/03/05 00:42:45;;;;;;;20.52;9.00;;;;;;;-0.49;70.13;102204.08;1660681;84;21105;-90
2022/03/05 00:45:12;;;;;;;20.90;9.20;;;;;;;-0.40;70.04;102212.66;1685133;84;21788;-89
2022/03/05 00:47:40;;;;;;;22.02;7.78;;;;;;;-0.30;69.90;102219.97;1683951;83;21043;-90
2022/03/05 00:50:09;;;;;;;16.25;6.92;;;;;;;-0.27;69.80;102226.73;1680582;85;21084;-91
2022/03/05 00:52:41;;;;;;;16.80;6.70;;;;;;;-0.26;69.68;102217.83;1708029;83;21069;-90
2022/03/05 00:55:08;;;;;;;18.15;7.00;;;;;;;-0.26;69.63;102220.42;1697318;83;21111;-91
2022/03/05 00:57:36;;;;;;;18.92;7.60;;;;;;;-0.29;69.47;102219.22;1703811;82;22666;-90
2022/03/05 01:00:07;;;;;;;18.27;8.00;;;;;;;-0.33;69.43;102222.30;1658801;84;21585;-90
2022/03/05 01:02:36;;;;;;;16.93;6.83;;;;;;;-0.43;69.35;102221.45;1722780;81;21092;-90
2022/03/05 01:05:05;;;;;;;18.48;7.35;;;;;;;-0.50;69.34;102214.27;1725374;81;21085;-90
2022/03/05 01:07:41;;;;;;;14.03;7.12;;;;;;;-0.59;69.37;102215.61;1673034;82;21634;-91
2022/03/05 01:10:18;;;;;;;15.08;6.37;;;;;;;-0.63;69.54;102211.83;1727171;80;21073;-91
2022/03/05 01:12:46;;;;;;;17.77;6.25;;;;;;;-0.67;69.57;102208.44;1647865;84;21555;-91
2022/03/05 01:15:15;;;;;;;19.73;6.20;;;;;;;-0.69;69.67;102211.66;1671947;84;21109;-88
2022/03/05 01:17:45;;;;;;;16.67;7.12;;;;;;;-0.70;69.73;102216.28;1693123;82;21520;-90
2022/03/05 01:20:17;;;;;;;15.72;6.95;;;;;;;-0.69;69.75;102212.95;1700414;82;21090;-91
2022/03/05 01:22:50;;;;;;;;;;;;;;;-0.66;69.95;102214.14;1682303;84;21013;-91
2022/03/05 01:25:20;;;;;;;14.20;6.15;;;;;;;-0.63;69.95;102209.23;1704701;82;20225;-90
2022/03/05 01:27:49;;;;;;;14.73;6.80;;;;;;;-0.55;70.03;102209.05;1698965;82;21061;-90
2022/03/05 01:30:16;;;;;;;14.20;5.72;;;;;;;-0.47;70.15;102201.25;1728951;81;21023;-91
2022/03/05 01:32:49;;;;;;;15.90;7.12;;;;;;;-0.37;70.12;102202.09;1729867;81;21149;-91
2022/03/05 01:35:23;;;;;;;16.00;8.00;;;;;;;-0.29;70.02;102204.99;1691141;81;21090;-89
2022/03/05 01:37:49;;;;;;;;;;;;;;;-0.27;69.92;102196.59;1733346;81;21502;-90
2022/03/05 01:40:18;;;;;;;18.15;7.70;;;;;;;-0.15;69.83;102212.35;1730673;81;20512;-90
2022/03/05 01:42:47;;;;;;;19.30;7.78;;;;;;;-0.10;69.76;102211.07;1728986;82;21113;-90
2022/03/05 01:45:16;;;;;;;19.12;7.95;;;;;;;-0.04;69.75;102215.89;1728559;82;21681;-88
2022/03/05 01:47:45;;;;;;;17.80;7.92;;;;;;;0.00;69.70;102215.43;1730811;81;21751;-89
2022/03/05 01:50:14;;;;;;;19.90;7.67;;;;;;;0.01;69.57;102213.34;1730525;81;21092;-88
2022/03/05 01:52:40;;;;;;;15.70;7.12;;;;;;;-0.01;69.57;102214.50;1729312;81;21072;-87
2022/03/05 01:55:07;;;;;;;16.87;6.95;;;;;;;0.03;69.64;102214.79;1723521;81;21069;-86
2022/03/05 01:57:35;;;;;;;14.13;6.42;;;;;;;0.07;69.72;102215.59;1714248;80;21098;-86
2022/03/05 02:00:02;;;;;;;14.25;6.45;;;;;;;0.07;69.78;102219.07;1714749;81;21900;-88
2022/03/05 02:02:32;;;;;;;15.60;5.85;;;;;;;0.10;69.89;102216.77;1714767;81;21006;-87
2022/03/05 02:05:00;;;;;;;16.55;5.72;;;;;;;0.14;69.94;102223.14;1697455;82;34445;-88
2022/03/05 02:07:27;;;;;;;13.75;5.60;;;;;;;0.13;70.01;102214.48;1719100;80;21133;-88
2022/03/05 02:09:53;;;;;;;16.73;6.22;;;;;;;0.17;70.13;102216.56;1718739;80;21144;-86
2022/03/05 02:12:30;;;;;;;9.85;5.05;;;;;;;0.23;70.20;102220.09;1714845;81;22551;-87
2022/03/05 02:14:58;;;;;;;18.25;6.53;;;;;;;0.28;70.22;102216.61;1714168;80;21030;-85
2022/03/05 02:17:27;;;;;;;14.28;5.47;;;;;;;0.30;70.23;102213.77;1714578;81;21069;-86
2022/03/05 02:19:56;;;;;;;16.37;6.45;;;;;;;0.31;70.29;102209.13;1714857;81;21085;-86
2022/03/05 02:22:23;;;;;;;10.23;5.50;;;;;;;0.33;70.37;102208.48;1714422;81;21654;-86
2022/03/05 02:24:55;;;;;;;11.38;5.10;;;;;;;0.33;70.46;102217.54;1714873;81;21748;-87
2022/03/05 02:27:23;;;;;;;13.60;5.78;;;;;;;0.38;70.58;102211.50;1695241;80;21627;-88
2022/03/05 02:29:50;;;;;;;12.75;4.60;;;;;;;0.40;70.67;102213.83;1681657;83;21132;-88
2022/03/05 02:32:20;;;;;;;11.30;4.65;;;;;;;0.45;70.75;102211.27;1714700;81;21687;-93
2022/03/05 02:34:46;;;;;;;11.05;4.55;;;;;;;0.50;70.79;102209.08;1715023;80;21042;-87
2022/03/05 02:37:15;;;;;;;14.58;4.67;;;;;;;0.53;70.80;102205.08;1716111;83;22559;-89
2022/03/05 02:39:44;;;;;;;10.23;3.70;;;;;;;0.57;70.88;102207.16;1708426;82;21043;-90
2022/03/05 02:42:15;;;;;;;6.58;2.98;;;;;;;0.59;70.80;102206.01;1741924;81;21042;-91
2022/03/05 02:44:48;;;;;;;8.90;3.62;;;;;;;0.54;70.84;102209.47;1738019;81;22304;-90
2022/03/05 02:47:14;;;;;;;15.53;3.67;;;;;;;0.52;70.88;102214.00;1738246;80;21168;-90
2022/03/05 02:49:43;;;;;;;4.95;2.55;;;;;;;0.50;70.95;102214.26;1707639;81;21744;-87
2022/03/05 02:52:10;;;;;;;8.03;2.80;;;;;;;0.48;71.00;102218.00;1726286;81;21133;-92
2022/03/05 02:54:45;;;;;;;9.58;3.02;;;;;;;0.46;71.03;102225.12;1718698;77;21070;-93
2022/03/05 02:57:14;;;;;;;7.50;2.50;;;;;;;0.30;71.06;102205.99;1674537;82;21708;-90
2022/03/05 02:59:42;;;;;;;7.95;2.55;;;;;;;0.36;71.24;102214.34;1740329;82;21054;-89
2022/03/05 03:02:12;;;;;;;5.58;2.55;;;;;;;0.36;71.27;102213.04;1742085;82;21781;-89
2022/03/05 03:04:41;;;;;;;7.55;2.37;;;;;;;0.35;71.35;102213.41;1745641;80;21041;-90
2022/03/05 03:07:09;;;;;;;6.80;2.52;;;;;;;0.33;71.33;102220.13;1709849;82;21017;-90
2022/03/05 03:09:36;;;;;;;4.95;2.22;;;;;;;0.31;71.32;102219.09;1719366;82;21378;-89
2022/03/05 03:12:03;;;;;;;5.17;2.50;;;;;;;0.28;71.30;102221.78;1747635;82;21131;-90
2022/03/05 03:14:30;;;;;;;7.53;2.85;;;;;;;0.26;71.35;102219.05;1744703;80;21745;-91
2022/03/05 03:16:59;;;;;;;5.60;2.77;;;;;;;0.26;71.37;102220.74;1718730;82;21117;-89
2022/03/05 03:19:25;;;;;;;6.42;2.70;;;;;;;0.28;71.38;102220.49;1741918;82;21050;-89
2022/03/05 03:21:52;;;;;;;8.20;2.50;;;;;;;0.31;71.39;102220.38;1738390;82;21104;-89
2022/03/05 03:24:19;;;;;;;7.17;2.60;;;;;;;0.35;71.32;102221.17;1743549;80;21105;-87
2022/03/05 03:26:45;;;;;;;8.68;2.77;;;;;;;0.41;71.27;102227.69;1743706;80;21762;-91
2022/03/05 03:29:12;;;;;;;8.05;3.00;;;;;;;0.43;71.15;102223.55;1717238;82;21839;-89
2022/03/05 03:31:59;;;;;;;6.10;3.22;;;;;;;0.44;71.01;102222.39;1745336;80;21063;-91
2022/03/05 03:34:26;;;;;;;5.97;2.27;;;;;;;0.46;70.92;102226.03;1719498;82;21103;-88
2022/03/05 03:36:53;;;;;;;7.92;2.55;;;;;;;0.48;70.84;102227.07;1738151;80;21770;-90
2022/03/05 03:39:19;;;;;;;6.17;2.20;;;;;;;0.49;70.74;102229.27;1739421;80;21972;-89
2022/03/05 03:41:46;;;;;;;6.97;2.58;;;;;;;0.54;70.75;102235.38;1719599;82;21080;-89
2022/03/05 03:44:14;;;;;;;6.47;2.27;;;;;;;0.58;70.67;102236.20;1745867;80;21053;-90
2022/03/05 03:46:41;;;;;;;5.67;2.22;;;;;;;0.62;70.59;102236.45;1737959;81;21182;-88
2022/03/05 03:49:08;;;;;;;5.35;1.92;;;;;;;0.65;70.49;102236.73;1738774;80;21074;-89
2022/03/05 03:51:35;;;;;;;6.72;2.22;;;;;;;0.69;70.47;102234.53;1739870;82;21950;-87
2022/03/05 03:54:02;;;;;;;7.00;2.22;;;;;;;0.71;70.21;102233.38;1737366;80;21060;-88
2022/03/05 03:56:29;;;;;;;6.55;2.42;;;;;;;0.69;70.16;102242.70;1703110;83;21074;-89
2022/03/05 03:58:57;;;;;;;11.90;2.58;;;;;;;0.67;69.98;102242.96;1714908;80;21077;-89
2022/03/05 04:01:24;;;;;;;4.45;2.20;;;;;;;0.67;70.09;102246.84;1717047;82;21575;-89
2022/03/05 04:03:53;;;;;;;6.67;2.75;;;;;;;0.70;69.99;102246.73;1717779;82;21791;-89
2022/03/05 04:08:41;;;;;;;4.30;2.30;;;;;;;0.72;70.03;102241.30;1714866;81;21357;-90
2022/03/05 04:08:59;;;;;;;6.00;1.92;;;;;;;0.75;70.04;102245.47;1691667;82;21079;-89
2022/03/05 04:11:25;;;;;;;6.10;2.55;;;;;;;0.79;69.96;102250.55;1708710;80;21130;-88
2022/03/05 04:13:55;;;;;;;3.92;2.27;;;;;;;0.81;69.87;102250.29;1714829;82;21055;-88
2022/03/05 04:16:20;;;;;;;5.83;2.35;;;;;;;0.83;69.87;102252.62;1708938;82;21965;-87
2022/03/05 04:18:47;;;;;;;5.90;2.00;;;;;;;0.81;69.73;102252.88;1714485;83;21071;-88
2022/03/05 04:21:16;;;;;;;5.75;2.02;;;;;;;0.82;69.69;102247.30;1714967;82;21059;-88
2022/03/05 04:23:43;;;;;;;8.48;2.40;;;;;;;0.81;69.67;102249.36;1715119;80;21042;-89
2022/03/05 04:26:11;;;;;;;5.35;2.37;;;;;;;0.81;69.61;102248.06;1711106;82;21293;-89
2022/03/05 04:28:40;;;;;;;5.15;2.60;;;;;;;0.80;69.58;102252.73;1714776;82;21745;-88
2022/03/05 04:31:06;;;;;;;6.80;3.05;;;;;;;0.83;69.67;102248.73;1714885;82;21499;-89
2022/03/05 04:33:34;;;;;;;6.80;2.70;;;;;;;0.83;69.45;102251.33;1714578;80;21655;-90
2022/03/05 04:36:06;;;;;;;9.10;3.27;;;;;;;0.82;69.46;102248.59;1714222;82;21297;-89
2022/03/05 04:38:32;;;;;;;7.80;3.50;;;;;;;0.81;69.38;102256.77;1700815;83;21094;-88
2022/03/05 04:41:01;;;;;;;7.78;3.35;;;;;;;0.80;69.33;102253.64;1714384;80;21757;-88
2022/03/05 04:43:27;;;;;;;6.87;2.75;;;;;;;0.82;69.33;102255.08;1709928;83;21059;-86
2022/03/05 04:45:56;;;;;;;5.40;2.87;;;;;;;0.80;69.18;102256.23;1714497;80;21059;-86
2022/03/05 04:48:24;;;;;;;7.70;2.52;;;;;;;0.79;69.16;102247.95;1714478;82;21074;-88
2022/03/05 04:50:51;;;;;;;5.90;2.70;;;;;;;0.78;69.09;102255.19;1714498;80;21065;-87
2022/03/05 04:53:20;;;;;;;7.12;2.77;;;;;;;0.76;69.09;102256.73;1714964;83;21753;-86
2022/03/05 04:55:48;;;;;;;7.35;2.22;;;;;;;0.70;69.03;102255.81;1725612;81;22345;-87
2022/03/05 04:58:20;;;;;;;5.20;2.33;;;;;;;0.68;69.03;102259.05;1754694;80;22377;-89
2022/03/05 05:00:50;;;;;;;7.37;2.95;;;;;;;0.65;69.12;102261.36;1753522;80;21007;-90
2022/03/05 05:03:18;;;;;;;5.87;2.60;;;;;;;0.66;69.18;102264.09;1708378;81;21065;-89
2022/03/05 05:05:45;;;;;;;8.65;2.92;;;;;;;0.65;69.10;102268.73;1750870;80;21785;-90
2022/03/05 05:08:13;;;;;;;7.05;2.60;;;;;;;0.64;69.10;102268.23;1754486;81;21698;-89
2022/03/05 05:10:41;;;;;;;6.97;2.70;;;;;;;0.63;69.13;102271.98;1750609;79;21113;-90
2022/03/05 05:13:10;;;;;;;5.30;2.17;;;;;;;0.60;68.99;102269.09;1754489;80;21098;-89
2022/03/05 05:15:36;;;;;;;4.62;2.10;;;;;;;0.58;68.81;102275.43;1773796;80;21053;-88
2022/03/05 05:18:09;;;;;;;4.95;1.70;;;;;;;0.57;68.47;102282.70;1754961;80;21810;-90
2022/03/05 05:20:38;;;;;;;4.05;1.80;;;;;;;0.50;68.04;102278.63;1691294;83;21081;-88
2022/03/05 05:23:07;;;;;;;5.22;1.50;;;;;;;0.47;67.92;102275.79;1755404;81;21489;-87
2022/03/05 05:25:33;;;;;;;5.08;1.52;;;;;;;0.45;67.84;102281.22;1743931;80;21205;-85
2022/03/05 05:28:00;;;;;;;2.95;1.32;;;;;;;0.44;67.67;102281.98;1724679;81;21351;-88
2022/03/05 05:30:26;;;;;;;3.50;1.42;;;;;;;0.41;67.43;102288.16;1780802;80;21737;-87
2022/03/05 05:32:53;;;;;;;5.67;1.27;;;;;;;0.38;67.23;102291.40;1763656;80;21078;-87
2022/03/05 05:35:20;;;;;;;4.33;1.70;;;;;;;0.36;67.18;102290.35;1720623;81;21583;-86
2022/03/05 05:37:47;;;;;;;4.45;1.70;;;;;;;0.38;67.14;102288.81;1753586;80;21544;-87
2022/03/05 05:40:18;;;;;;;8.80;1.70;;;;;;;0.37;67.10;102292.16;1753598;81;21140;-86
2022/03/05 05:42:42;;;;;;;4.58;1.77;;;;;;;0.36;67.04;102294.23;1756745;81;21782;-89
2022/03/05 05:45:13;;;;;;;5.05;2.30;;;;;;;0.38;67.13;102295.67;1757608;81;21062;-86
2022/03/05 05:47:39;;;;;;;5.55;1.57;;;;;;;0.40;66.93;102292.84;1763823;80;21142;-86
2022/03/05 05:50:09;;;;;;;3.05;1.40;;;;;;;0.41;66.90;102293.34;1755097;81;21159;-87
2022/03/05 05:52:37;;;;;;;2.52;1.40;;;;;;;0.44;66.66;102302.70;1725219;81;21101;-82
2022/03/05 05:55:05;;;;;;;5.20;1.67;;;;;;;0.42;66.61;102296.48;1756149;80;21821;-86
2022/03/05 05:57:31;;;;;;;6.40;1.50;;;;;;;0.43;66.61;102300.87;1709855;83;21062;-87
2022/03/05 05:59:58;;;;;;;6.42;1.95;;;;;;;0.41;66.40;102295.03;1713245;83;21129;-82
2022/03/05 06:02:25;;;;;;;4.70;2.20;;;;;;;0.37;66.44;102298.63;1721836;81;21090;-88
2022/03/05 06:04:52;;;;;;;5.67;2.35;;;;;;;0.38;66.32;102304.34;1713929;83;21600;-90
2022/03/05 06:07:18;;;;;;;4.00;2.33;;;;;;;0.40;66.32;102303.20;1714440;83;21841;-89
2022/03/05 06:09:45;;;;;;;7.95;2.17;;;;;;;0.43;66.15;102303.85;1715057;83;20964;-91
2022/03/05 06:12:11;;;;;;;10.95;2.40;;;;;;;0.49;66.24;102294.97;1714550;83;21145;-92
2022/03/05 06:14:39;;;;;;;7.22;2.90;;;;;;;0.55;66.05;102303.68;1714382;83;21086;-92
2022/03/05 06:17:06;;;;;;;8.60;3.08;;;;;;;0.60;65.84;102307.57;1674910;83;21055;-91
2022/03/05 06:19:33;;;;;;;12.88;4.28;;;;;;;0.62;65.57;102306.42;1714882;82;21731;-91
2022/03/05 06:22:00;;;;;;;9.35;3.40;;;;;;;0.63;65.48;102305.66;1704555;83;21298;-91
2022/03/05 06:24:26;;;;;;;9.63;4.37;;;;;;;0.69;65.50;102304.91;1661643;85;21082;-91
2022/03/05 06:26:56;;;;;;;10.88;4.22;;;;;;;0.77;65.31;102304.83;1664231;85;21292;-91
2022/03/05 06:29:23;;;;;;;11.45;4.65;;;;;;;0.82;65.17;102306.52;1672475;85;21048;-92
2022/03/05 06:31:51;;;;;;;10.05;4.37;;;;;;;0.84;65.06;102307.56;1667227;85;21718;-90
2022/03/05 06:34:17;;;;;;;7.37;3.60;;;;;;;0.90;65.09;102316.27;1663614;85;21199;-91
2022/03/05 06:36:44;;;;;;;7.72;3.52;;;;;;;0.97;64.98;102316.95;1640283;85;21091;-91
2022/03/05 06:39:11;;;;;;;7.45;3.40;;;;;;;1.02;64.73;102317.77;1660929;84;21099;-91
2022/03/05 06:41:37;;;;;;;9.20;3.52;;;;;;;1.07;64.69;102323.89;1714112;83;21268;-91
2022/03/05 06:44:06;;;;;;;5.37;3.42;;;;;;;1.17;64.65;102326.91;1677007;85;21816;-91
2022/03/05 06:46:33;;;;;;;6.03;2.80;;;;;;;1.24;64.52;102321.48;1673814;85;21596;-90
2022/03/05 06:49:00;;;;;;;6.00;3.05;;;;;;;1.26;64.27;102322.52;1660714;85;21067;-90
2022/03/05 06:51:28;;;;;;;3.85;2.25;;;;;;;1.29;64.31;102323.17;1646791;85;21098;-91
2022/03/05 06:53:55;;;;;;;3.37;1.92;;;;;;;1.33;63.99;102332.67;1667168;84;21110;-91
2022/03/05 06:56:21;;;;;;;8.20;3.00;;;;;;;1.36;63.65;102333.31;1666377;82;21747;-91
2022/03/05 06:58:48;;;;;;;4.33;2.33;;;;;;;1.26;63.41;102328.08;1664149;85;21050;-91
2022/03/05 07:01:15;;;;;;;4.97;2.22;;;;;;;1.21;63.24;102338.46;1665940;86;21106;-88
2022/03/05 07:03:42;;;;;;;7.05;2.83;;;;;;;1.14;63.27;102328.81;1689851;84;21098;-91
2022/03/05 07:06:08;;;;;;;6.83;3.08;;;;;;;1.11;63.14;102332.86;1690708;82;21043;-92
2022/03/05 07:08:37;;;;;;;5.35;2.92;;;;;;;1.08;63.18;102328.68;1697348;82;21784;-91
2022/03/05 07:11:06;;;;;;;5.97;2.22;;;;;;;1.04;63.15;102338.27;1702277;81;21075;-91
2022/03/05 07:13:34;;;;;;;4.00;1.87;;;;;;;0.96;62.92;102339.78;1665759;84;21102;-83
2022/03/05 07:16:00;;;;;;;6.28;2.30;;;;;;;0.93;62.73;102343.78;1672857;82;21231;-85
2022/03/05 07:18:29;;;;;;;7.30;2.35;;;;;;;0.90;62.57;102343.50;1661598;82;21082;-87
2022/03/05 07:20:57;;;;;;;5.35;2.80;;;;;;;0.92;62.86;102340.29;1686165;82;22534;-88
2022/03/05 07:23:25;;;;;;;9.23;4.50;;;;;;;1.05;63.12;102338.41;1684980;82;21081;-85
2022/03/05 07:25:51;;;;;;;9.58;4.62;;;;;;;1.26;63.12;102343.64;1684594;83;21066;-83
2022/03/05 07:28:20;;;;;;;7.20;3.30;;;;;;;1.35;62.89;102341.49;1684872;83;21636;-84
2022/03/05 07:30:47;;;;;;;9.18;4.10;;;;;;;1.38;62.74;102342.53;1667404;82;21079;-84
2022/03/05 07:33:14;;;;;;;5.12;2.67;;;;;;;1.39;62.47;102344.33;1684925;84;21772;-83
2022/03/05 07:35:41;;;;;;;7.92;2.75;;;;;;;1.43;62.29;102346.45;1684851;84;21090;-83
2022/03/05 07:38:11;;;;;;;4.87;2.80;;;;;;;1.40;62.01;102350.96;1684605;85;21066;-83
2022/03/05 07:40:36;;;;;;;5.03;2.87;;;;;;;1.29;61.80;102346.13;1684364;82;21078;-83
2022/03/05 07:43:02;;;;;;;8.20;2.22;;;;;;;1.24;61.91;102346.13;1684636;85;21074;-83
2022/03/05 07:45:29;;;;;;;6.50;2.70;;;;;;;1.27;62.02;102354.16;1685142;83;21726;-83
2022/03/05 07:47:56;;;;;;;11.65;2.30;;;;;;;1.22;61.80;102353.23;1685270;82;21105;-84
2022/03/05 07:50:23;;;;;;;6.50;2.55;;;;;;;1.25;62.00;102345.73;1684871;84;21110;-83
2022/03/05 07:52:49;;;;;;;6.80;2.30;;;;;;;1.33;62.07;102348.59;1683990;83;21083;-85
2022/03/05 07:55:16;;;;;;;7.25;2.62;;;;;;;1.52;62.08;102347.22;1684375;84;21087;-85
2022/03/05 07:57:43;;;;;;;4.10;1.92;;;;;;;1.73;62.00;102350.39;1656310;84;22432;-84
2022/03/05 08:00:10;;;;;;;3.83;1.92;;;;;;;1.90;61.80;102349.64;1685511;84;21089;-88
2022/03/05 08:02:37;;;;;;;3.60;2.10;;;;;;;2.04;61.70;102360.80;1684875;84;21113;-84
2022/03/05 08:05:04;;;;;;;3.75;1.72;;;;;;;2.12;61.40;102357.55;1685324;85;21162;-84
2022/03/05 08:07:31;;;;;;;4.22;2.05;;;;;;;2.19;61.26;102357.70;1684504;82;21098;-85
2022/03/05 08:09:58;;;;;;;7.12;2.00;;;;;;;2.30;61.20;102360.80;1684363;82;21688;-86
2022/03/05 08:12:24;;;;;;;5.40;1.98;;;;;;;2.36;61.01;102358.72;1684808;82;21075;-85
2022/03/05 08:14:51;;;;;;;7.17;2.35;;;;;;;2.33;60.85;102354.58;1684339;84;21082;-85
2022/03/05 08:18:06;;;;;;;5.30;2.10;;;;;;;2.37;60.84;102349.25;1685279;82;21100;-88
2022/03/05 08:23:56;;;;;;;4.33;1.60;;;;;;;2.87;60.73;102349.91;1395515;100;21202;-84
2022/03/05 08:26:26;;;;;;;3.85;1.98;;;;;;;3.14;60.44;102355.55;1399362;101;21647;-91
2022/03/05 08:28:51;;;;;;;4.10;1.98;;;;;;;3.11;60.08;102364.00;1399817;102;21158;-90
2022/03/05 08:31:18;;;;;;;6.55;1.60;;;;;;;3.18;60.15;102362.81;1403779;101;21166;-91
2022/03/05 08:33:44;;;;;;;3.65;1.60;;;;;;;3.26;59.91;102368.23;1403064;102;21154;-91
2022/03/05 08:36:12;;;;;;;3.33;1.72;;;;;;;3.14;59.35;102362.95;1410459;100;21783;-90
2022/03/05 08:38:40;;;;;;;4.62;1.90;;;;;;;3.19;59.51;102369.45;1402896;102;21134;-91
2022/03/05 08:41:06;;;;;;;5.53;2.12;;;;;;;3.17;59.25;102364.89;1409895;100;21196;-91
2022/03/05 08:43:33;;;;;;;4.08;1.95;;;;;;;3.16;59.27;102360.48;1399069;101;21208;-91
2022/03/05 08:46:01;;;;;;;5.25;1.95;;;;;;;3.19;59.11;102362.02;1399959;101;21095;-91
2022/03/05 08:48:28;;;;;;;4.03;1.60;;;;;;;3.29;59.17;102361.59;1414416;99;22529;-91
2022/03/05 08:50:55;;;;;;;2.22;1.30;;;;;;;3.44;58.94;102367.11;1419071;99;21794;-90
2022/03/05 08:53:22;;;;;;;3.83;1.50;;;;;;;3.39;58.51;102373.63;1423178;99;21598;-91
2022/03/05 08:55:48;;;;;;;4.92;1.87;;;;;;;3.31;58.38;102370.42;1429652;99;21160;-90
2022/03/05 08:58:15;;;;;;;4.90;1.95;;;;;;;3.23;58.24;102365.37;1450052;96;21231;-91
2022/03/05 09:00:42;;;;;;;6.70;1.67;;;;;;;3.37;58.65;102369.10;1584842;85;21769;-90
2022/03/05 09:03:08;;;;;;;3.35;1.98;;;;;;;3.45;58.26;102367.64;1694099;84;21072;-91
2022/03/05 09:05:35;;;;;;;3.92;2.33;;;;;;;3.53;58.20;102366.94;1698250;82;21021;-90
2022/03/05 09:08:02;;;;;;;3.92;2.30;;;;;;;3.51;57.77;102367.22;1696108;83;21057;-91
2022/03/05 09:10:29;;;;;;;4.47;2.40;;;;;;;3.68;57.91;102372.05;1670762;85;21099;-90
2022/03/05 09:12:56;;;;;;;5.60;3.20;;;;;;;3.84;57.91;102361.13;1673844;84;22790;-90
2022/03/05 09:15:22;;;;;;;4.40;2.20;;;;;;;3.80;57.48;102364.69;1718211;82;21103;-91
2022/03/05 09:17:49;;;;;;;6.65;2.20;;;;;;;3.64;57.22;102367.77;1713125;83;21062;-90
2022/03/05 09:20:15;;;;;;;4.28;2.00;;;;;;;3.66;57.54;102367.12;1722258;83;21771;-90
2022/03/05 09:22:42;;;;;;;4.70;2.58;;;;;;;3.68;57.38;102373.36;1710216;83;21094;-91
2022/03/05 09:25:09;;;;;;;5.37;1.77;;;;;;;3.61;57.35;102371.45;1700727;82;21739;-90
2022/03/05 09:27:36;;;;;;;7.35;2.02;;;;;;;3.65;57.39;102368.30;1696726;84;21062;-90
2022/03/05 09:30:04;;;;;;;4.62;2.08;;;;;;;3.59;57.27;102370.42;1696459;82;21540;-90
2022/03/05 09:32:30;;;;;;;4.78;1.45;;;;;;;3.45;56.36;102379.72;1696324;82;21186;-85
2022/03/05 09:35:00;;;;;;;10.70;6.03;;;;;;;3.13;56.54;102373.23;1696568;84;21056;-90
2022/03/05 09:37:31;;;;;;;8.05;3.92;;;;;;;3.21;57.19;102379.95;1688376;83;21710;-90
2022/03/05 09:39:58;;;;;;;6.55;2.55;;;;;;;3.36;57.34;102381.22;1714477;83;21077;-90
2022/03/05 09:42:25;;;;;;;2.40;1.92;;;;;;;3.45;57.34;102372.84;1699007;82;21097;-91
2022/03/05 09:44:52;;;;;;;5.67;3.00;;;;;;;3.41;56.90;102373.77;1673585;83;21051;-90
2022/03/05 09:47:18;;;;;;;3.52;2.00;;;;;;;3.27;57.04;102376.17;1706386;82;21544;-90
2022/03/05 09:49:45;;;;;;;6.20;2.67;;;;;;;3.31;57.28;102382.53;1713473;83;21855;-92
2022/03/05 09:52:12;;;;;;;7.50;2.70;;;;;;;3.34;57.27;102372.75;1667453;84;21070;-90
2022/03/05 09:54:38;;;;;;;6.25;2.83;;;;;;;3.50;57.33;102384.91;1716097;82;21202;-91
2022/03/05 09:57:12;;;;;;;2.65;2.12;;;;;;;3.53;56.80;102385.53;1672089;84;21183;-90
2022/03/05 09:59:39;;;;;;;5.92;2.22;;;;;;;3.41;56.56;102377.66;1710108;82;21005;-91
2022/03/05 10:02:07;;;;;;;4.45;1.95;;;;;;;3.31;56.08;102377.33;1736519;82;21882;-91
2022/03/05 10:04:33;;;;;;;3.67;1.90;;;;;;;3.27;56.65;102383.08;1701191;81;21092;-90
2022/03/05 10:07:18;;;;;;;5.60;1.87;;;;;;;3.19;56.42;102377.62;1718500;82;21073;-90
2022/03/05 10:09:47;;;;;;;5.90;1.87;;;;;;;3.05;56.46;102394.33;1735905;81;21073;-91
2022/03/05 10:12:32;;;;;;;4.15;1.45;;;;;;;2.93;56.81;102381.64;1709232;82;21114;-91
2022/03/05 10:15:18;;;;;;;4.67;1.82;;;;;;;2.98;56.87;102392.00;1700073;82;21971;-91
2022/03/05 10:18:00;;;;;;;4.92;1.80;;;;;;;2.83;56.71;102390.75;1714767;82;21535;-91
2022/03/05 10:20:32;;;;;;;3.85;1.85;;;;;;;2.63;56.54;102400.42;1671796;84;21023;-90
2022/03/05 10:23:05;;;;;;;3.67;1.60;;;;;;;2.52;56.67;102394.31;1698280;84;21016;-90
2022/03/05 10:25:41;;;;;;;1.85;1.10;;;;;;;2.65;57.01;102394.05;1687012;83;21991;-89
2022/03/05 10:28:24;;;;;;;4.00;1.77;;;;;;;2.87;56.94;102387.25;1685850;82;21982;-89
2022/03/05 10:31:03;;;;;;;3.42;1.52;;;;;;;3.00;56.95;102379.13;1678500;84;21076;-90
2022/03/05 10:33:43;;;;;;;4.42;1.70;;;;;;;3.20;56.54;102381.66;1688137;84;21811;-88
2022/03/05 10:36:23;;;;;;;4.10;1.50;;;;;;;3.22;56.51;102388.30;1689351;84;21134;-89
2022/03/05 10:38:53;;;;;;;4.22;1.82;;;;;;;3.24;56.30;102385.02;1686858;83;21532;-89
2022/03/05 10:41:38;;;;;;;4.58;2.02;;;;;;;3.37;56.38;102385.63;1685698;84;21823;-89
2022/03/05 10:44:17;;;;;;;4.70;2.17;;;;;;;3.57;56.53;102377.21;1685277;84;21086;-89
2022/03/05 10:46:50;;;;;;;3.45;1.80;;;;;;;3.75;56.50;102372.13;1685430;84;21615;-88
2022/03/05 10:49:22;;;;;;;6.22;2.30;;;;;;;3.85;56.22;102372.48;1684870;83;21161;-89
2022/03/05 10:52:02;;;;;;;3.05;1.40;;;;;;;3.70;55.98;102390.01;1685467;84;21584;-89
2022/03/05 10:54:39;;;;;;;3.30;1.77;;;;;;;3.65;55.78;102380.02;1687840;83;21726;-89
2022/03/05 10:57:17;;;;;;;2.62;1.40;;;;;;;3.58;55.24;102377.30;1687875;83;21074;-89
2022/03/05 10:59:46;;;;;;;9.53;4.72;;;;;;;3.51;55.48;102382.84;1655113;84;21088;-89
2022/03/05 11:02:15;;;;;;;5.75;3.08;;;;;;;3.39;55.46;102371.03;1684322;83;21199;-89
2022/03/05 11:04:42;;;;;;;6.33;3.37;;;;;;;3.34;55.59;102369.78;1687222;83;21031;-88
2022/03/05 11:07:09;;;;;;;5.60;2.30;;;;;;;3.36;55.81;102368.20;1698200;82;21786;-88
2022/03/05 11:09:38;;;;;;;3.58;1.77;;;;;;;3.38;55.43;102368.30;1684799;83;21107;-90
2022/03/05 11:12:07;;;;;;;4.58;2.22;;;;;;;3.51;55.68;102368.52;1685452;83;21122;-88
2022/03/05 11:14:33;;;;;;;5.65;2.50;;;;;;;3.69;55.64;102365.14;1685328;83;21039;-89
2022/03/05 11:17:00;;;;;;;8.98;3.70;;;;;;;3.72;55.36;102363.16;1684427;84;21317;-89
2022/03/05 11:19:28;;;;;;;3.62;1.87;;;;;;;3.77;55.39;102364.03;1685387;84;21771;-89
2022/03/05 11:21:54;;;;;;;5.65;2.47;;;;;;;3.80;55.18;102359.48;1685834;83;21067;-89
2022/03/05 11:24:21;;;;;;;5.83;1.80;;;;;;;3.79;55.22;102371.97;1717572;82;21097;-89
2022/03/05 11:26:54;;;;;;;5.20;2.05;;;;;;;3.80;55.22;102358.17;1714830;81;21114;-89
2022/03/05 11:29:27;;;;;;;4.47;2.47;;;;;;;3.89;55.14;102361.09;1715847;80;21054;-88
2022/03/05 11:32:12;;;;;;;5.78;3.47;;;;;;;3.83;54.80;102368.45;1715126;81;21680;-89
2022/03/05 11:34:46;;;;;;;75.22;30.08;;;;;;;3.52;54.62;102354.70;1702069;82;21039;-89
2022/03/05 11:37:26;;;;;;;21.30;8.55;;;;;;;3.44;54.84;102358.00;1714920;82;21050;-90
2022/03/05 11:39:53;;;;;;;15.43;7.70;;;;;;;3.34;54.64;102344.12;1701193;82;21135;-89